Time;durP1;ratioP1;P1;durP2;ratioP2;P2;SDS_P1;SDS_P2;PMS_P1;PMS_P2;Temp;Humidity;BMP_temperature;BMP_pressure;BME280_temperature;BME280_humidity;BME280_pressure;Samples;Min_cycle;Max_cycle;Signal;HPM_P1;HPM_P2
2024/04/12 00:01:48;;;;;;;3.63;1.80;;;;;;;11.86;89.45;99514.84;5263900;26;20001;-68
2024/04/12 00:04:15;;;;;;;4.97;1.90;;;;;;;11.74;88.07;99521.53;5345081;26;20012;-67
2024/04/12 00:06:44;;;;;;;5.32;1.90;;;;;;;11.67;87.82;99525.00;5316918;26;20075;-68
2024/04/12 00:09:17;;;;;;;4.93;2.35;;;;;;;11.60;89.79;99527.47;5315262;26;20005;-69
2024/04/12 00:11:55;;;;;;;3.75;1.90;;;;;;;11.69;93.81;99518.53;5290982;26;20005;-68
2024/04/12 00:14:22;;;;;;;6.30;2.20;;;;;;;11.62;93.73;99524.66;5313737;26;20025;-68
2024/04/12 00:16:55;;;;;;;4.88;2.10;;;;;;;11.60;89.82;99529.31;5284718;26;20004;-69
2024/04/12 00:19:22;;;;;;;2.97;1.77;;;;;;;11.60;93.08;99518.66;5286520;26;20001;-68
2024/04/12 00:21:52;;;;;;;6.50;1.90;;;;;;;11.64;91.91;99522.66;5313352;26;20025;-69
2024/04/12 00:24:29;;;;;;;3.45;1.88;;;;;;;11.63;93.18;99521.88;5258201;26;20074;-67
2024/04/12 00:26:55;;;;;;;5.28;2.20;;;;;;;11.66;93.50;99513.53;5288225;26;20063;-68
2024/04/12 00:29:36;;;;;;;3.10;1.70;;;;;;;11.79;95.62;99518.34;5257954;26;20007;-68
2024/04/12 00:32:13;;;;;;;5.80;2.20;;;;;;;11.77;91.89;99525.66;5289822;26;20000;-68
2024/04/12 00:34:47;;;;;;;2.03;1.70;;;;;;;11.76;91.59;99519.50;5230970;26;20244;-69
2024/04/12 00:37:17;;;;;;;6.10;2.20;;;;;;;11.71;90.77;99521.03;5283520;26;20168;-69
2024/04/12 00:39:49;;;;;;;3.33;2.00;;;;;;;11.86;91.30;99511.34;5306729;27;20711;-71
2024/04/12 00:42:31;;;;;;;6.60;1.90;;;;;;;11.87;91.48;99515.66;5278192;27;20340;-71
2024/04/12 00:45:02;;;;;;;5.05;1.90;;;;;;;11.87;92.00;99510.34;5277790;27;20004;-69
2024/04/12 00:47:33;;;;;;;2.80;1.77;;;;;;;11.85;92.41;99507.84;5280688;27;20009;-68
2024/04/12 00:50:00;;;;;;;3.45;1.85;;;;;;;11.94;92.03;99506.00;5224807;27;20002;-68
2024/04/12 00:52:33;;;;;;;4.00;1.63;;;;;;;11.81;91.54;99517.19;5276316;27;20013;-67
2024/04/12 00:55:06;;;;;;;3.58;1.63;;;;;;;11.86;92.41;99506.88;5275653;27;20065;-68
2024/04/12 00:57:39;;;;;;;2.67;1.70;;;;;;;11.85;93.38;99497.19;5305503;26;20002;-68
2024/04/12 01:00:08;;;;;;;;;;;;;;;11.97;93.32;99494.19;5249405;27;20393;-71
2024/04/12 01:02:42;;;;;;;3.33;1.40;;;;;;;11.88;94.37;99486.22;5274487;27;19934;-68
2024/04/12 01:05:12;;;;;;;4.82;1.70;;;;;;;11.86;96.45;99477.59;5248490;27;20445;-68
2024/04/12 01:07:48;;;;;;;6.63;1.80;;;;;;;11.78;95.91;99480.25;5247778;27;20813;-68
2024/04/12 01:10:24;;;;;;;5.28;2.10;;;;;;;11.88;97.91;99480.09;5248527;27;20006;-68
2024/04/12 01:13:02;;;;;;;3.85;2.17;;;;;;;11.90;97.14;99480.72;5250395;27;20078;-69
2024/04/12 01:15:32;;;;;;;2.92;1.83;;;;;;;11.89;97.49;99479.06;5278932;27;20002;-68
2024/04/12 01:18:04;;;;;;;2.78;1.80;;;;;;;11.90;96.90;99475.41;5279160;27;20002;-69
2024/04/12 01:20:34;;;;;;;5.38;1.90;;;;;;;11.93;97.08;99475.09;5250351;27;20021;-70
2024/04/12 01:23:03;;;;;;;3.17;1.40;;;;;;;11.90;97.88;99467.41;5248341;27;20007;-68
2024/04/12 01:25:31;;;;;;;4.80;1.63;;;;;;;11.86;100.00;99464.28;5248222;27;20018;-68
2024/04/12 01:27:58;;;;;;;7.93;1.77;;;;;;;11.87;100.00;99475.75;5313259;26;20415;-68
2024/04/12 01:30:24;;;;;;;3.95;1.70;;;;;;;11.83;97.89;99475.28;5285229;26;20001;-68
2024/04/12 01:32:50;;;;;;;9.48;2.00;;;;;;;11.73;97.08;99481.78;5285360;26;19997;-68
2024/04/12 01:35:22;;;;;;;2.47;1.42;;;;;;;11.75;98.18;99475.28;5285291;26;20025;-68
2024/04/12 01:37:52;;;;;;;3.15;1.60;;;;;;;11.71;99.76;99463.34;5257942;26;20000;-68
2024/04/12 01:40:18;;;;;;;3.60;1.73;;;;;;;11.66;99.17;99470.97;5258059;26;20004;-68
2024/04/12 01:42:44;;;;;;;3.17;1.50;;;;;;;11.65;99.90;99471.97;5285290;26;20351;-67
2024/04/12 01:45:14;;;;;;;6.70;1.55;;;;;;;11.66;100.00;99465.66;5342615;26;20424;-67
2024/04/12 01:47:42;;;;;;;3.70;1.60;;;;;;;11.61;100.00;99464.44;5342117;26;20109;-67
2024/04/12 01:50:12;;;;;;;3.08;1.60;;;;;;;11.57;100.00;99455.16;5284027;26;20008;-67
2024/04/12 01:52:53;;;;;;;3.25;1.63;;;;;;;11.62;100.00;99460.81;5257321;26;20416;-67
2024/04/12 01:55:21;;;;;;;2.78;1.63;;;;;;;11.56;100.00;99450.84;5316440;26;20016;-67
2024/04/12 01:57:55;;;;;;;5.13;1.80;;;;;;;11.55;100.00;99450.00;5256914;26;20001;-67
2024/04/12 02:00:26;;;;;;;4.55;1.98;;;;;;;11.38;100.00;99444.88;5248238;27;20018;-69
2024/04/12 02:02:59;;;;;;;5.22;1.50;;;;;;;11.44;100.00;99439.72;5275743;27;20016;-74
2024/04/12 02:05:29;;;;;;;3.47;1.60;;;;;;;11.36;100.00;99434.41;5247142;27;20014;-68
2024/04/12 02:07:55;;;;;;;2.97;1.70;;;;;;;11.33;100.00;99434.75;5248472;27;20014;-68
2024/04/12 02:10:23;;;;;;;3.72;1.80;;;;;;;11.32;100.00;99434.91;5247750;27;20748;-68
2024/04/12 02:12:54;;;;;;;7.28;2.17;;;;;;;11.21;100.00;99432.63;5248887;27;20007;-67
2024/04/12 02:15:29;;;;;;;4.90;1.75;;;;;;;11.22;100.00;99426.28;5276148;27;20050;-67
2024/04/12 02:17:58;;;;;;;4.38;1.65;;;;;;;11.15;100.00;99423.47;5276706;27;20441;-66
2024/04/12 02:20:45;;;;;;;5.85;1.70;;;;;;;11.18;100.00;99430.25;5274303;27;19999;-70
2024/04/12 02:23:16;;;;;;;3.08;1.73;;;;;;;11.24;100.00;99430.44;5218537;27;20010;-67
2024/04/12 02:25:43;;;;;;;2.60;1.52;;;;;;;11.27;100.00;99431.94;5216437;27;20010;-67
2024/04/12 02:28:12;;;;;;;2.92;1.52;;;;;;;11.32;100.00;99429.59;5243280;27;20122;-68
2024/04/12 02:30:45;;;;;;;6.05;1.77;;;;;;;11.32;100.00;99434.91;5213886;27;20021;-67
2024/04/12 02:33:14;;;;;;;2.75;1.60;;;;;;;11.33;100.00;99428.63;5268323;26;20026;-67
2024/04/12 02:35:41;;;;;;;3.97;1.90;;;;;;;11.38;100.00;99418.28;5233604;27;20006;-67
2024/04/12 02:38:15;;;;;;;6.78;2.08;;;;;;;11.53;100.00;99429.91;5206045;27;20598;-67
2024/04/12 02:40:42;;;;;;;3.65;1.90;;;;;;;11.54;100.00;99427.09;5257649;27;20073;-67
2024/04/12 02:43:15;;;;;;;4.47;1.80;;;;;;;11.62;100.00;99421.75;5246996;27;20009;-67
2024/04/12 02:45:55;;;;;;;7.13;1.88;;;;;;;11.69;100.00;99424.56;5248129;27;20008;-67
2024/04/12 02:48:21;;;;;;;6.53;1.80;;;;;;;11.60;100.00;99420.25;5277856;27;20020;-67
2024/04/12 02:50:53;;;;;;;3.33;1.70;;;;;;;11.65;100.00;99412.63;5277681;27;20002;-67
2024/04/12 02:53:26;;;;;;;4.72;1.75;;;;;;;11.77;100.00;99414.75;5254585;27;20510;-68
2024/04/12 02:56:04;;;;;;;5.30;2.40;;;;;;;11.74;100.00;99396.47;5261879;27;20008;-70
2024/04/12 02:58:38;;;;;;;9.43;2.40;;;;;;;11.63;100.00;99396.00;5274806;27;20072;-67
2024/04/12 03:01:12;;;;;;;7.57;2.60;;;;;;;11.69;100.00;99397.97;5249229;27;20049;-69
2024/04/12 03:03:47;;;;;;;3.75;1.85;;;;;;;11.69;100.00;99400.63;5306776;27;20005;-74
2024/04/12 03:06:17;;;;;;;5.43;2.05;;;;;;;11.70;100.00;99397.00;5251791;26;20011;-77
2024/04/12 03:08:47;;;;;;;4.00;2.05;;;;;;;11.63;100.00;99388.84;5292179;26;19992;-70
2024/04/12 03:11:22;;;;;;;6.75;2.13;;;;;;;11.62;100.00;99386.34;5349089;26;20381;-69
2024/04/12 03:13:52;;;;;;;5.70;2.13;;;;;;;11.61;100.00;99389.97;5315189;26;19997;-67
2024/04/12 03:16:19;;;;;;;4.57;2.10;;;;;;;11.72;100.00;99385.16;5286714;26;20012;-67
2024/04/12 03:18:48;;;;;;;2.97;2.10;;;;;;;11.76;100.00;99380.34;5317392;26;20004;-69
2024/04/12 03:21:21;;;;;;;6.20;2.30;;;;;;;11.70;100.00;99373.06;5319108;26;19997;-68
2024/04/12 03:23:48;;;;;;;7.55;2.65;;;;;;;11.71;100.00;99378.19;5261672;26;20016;-68
2024/04/12 03:26:18;;;;;;;6.60;2.33;;;;;;;11.77;100.00;99384.66;5315206;26;20067;-73
2024/04/12 03:28:45;;;;;;;;;;;;;;;11.69;100.00;99387.34;5315199;26;20012;-74
2024/04/12 03:31:17;;;;;;;6.38;2.65;;;;;;;11.78;100.00;99373.00;5287833;26;19941;-73
2024/04/12 03:33:44;;;;;;;7.97;2.30;;;;;;;11.85;100.00;99374.78;5315308;26;20219;-71
2024/04/12 03:42:04;;;;;;;3.70;2.20;;;;;;;12.08;100.00;99364.22;5343518;26;20036;-75
2024/04/12 03:44:31;;;;;;;3.80;1.95;;;;;;;12.12;100.00;99359.38;5308357;26;20040;-72
2024/04/12 03:47:10;;;;;;;4.35;2.40;;;;;;;11.92;100.00;99356.31;5380207;26;20000;-71
2024/04/12 03:49:39;;;;;;;6.35;2.30;;;;;;;11.99;100.00;99349.31;5351912;26;20044;-70
2024/04/12 03:52:13;;;;;;;3.97;2.10;;;;;;;12.05;100.00;99351.28;5350465;26;20011;-73
2024/04/12 03:54:40;;;;;;;6.78;2.22;;;;;;;12.16;100.00;99348.22;5352404;26;20016;-73
2024/04/12 03:57:06;;;;;;;4.40;2.30;;;;;;;12.17;100.00;99349.03;5381709;26;20015;-71
2024/04/12 03:59:34;;;;;;;5.57;2.38;;;;;;;12.41;100.00;99333.72;5380048;26;20004;-71
2024/04/12 04:02:07;;;;;;;6.72;2.50;;;;;;;12.44;100.00;99337.91;5319662;26;20015;-72
2024/04/12 04:04:38;;;;;;;5.40;2.30;;;;;;;12.51;95.93;99344.16;5382865;26;20555;-70
2024/04/12 04:07:05;;;;;;;4.55;2.00;;;;;;;12.54;100.00;99336.66;5381550;26;20544;-72
2024/04/12 04:09:32;;;;;;;7.40;2.10;;;;;;;12.57;97.11;99338.13;5283780;26;20009;-73
2024/04/12 04:11:59;;;;;;;6.25;2.13;;;;;;;12.68;100.00;99335.03;5312025;26;20395;-72
2024/04/12 04:14:26;;;;;;;6.13;2.30;;;;;;;12.79;95.52;99337.28;5342850;26;19997;-72
2024/04/12 04:16:55;;;;;;;4.68;2.50;;;;;;;12.70;92.29;99344.50;5315734;26;20408;-72
2024/04/12 04:19:35;;;;;;;6.40;2.10;;;;;;;12.75;93.19;99331.47;5316502;26;20129;-75
2024/04/12 04:22:20;;;;;;;8.73;2.78;;;;;;;12.85;92.47;99329.41;5344441;26;19996;-72
2024/04/12 04:24:46;;;;;;;10.45;2.35;;;;;;;12.37;91.16;99332.44;5320723;26;20001;-72
2024/04/12 04:27:13;;;;;;;9.55;2.40;;;;;;;12.24;95.25;99326.03;5343753;26;20001;-72
2024/04/12 04:29:43;;;;;;;6.50;2.20;;;;;;;12.43;95.25;99326.41;5315148;26;20044;-72
2024/04/12 04:32:10;;;;;;;6.73;2.13;;;;;;;12.53;94.43;99332.31;5344668;26;19997;-73
2024/04/12 04:34:36;;;;;;;8.00;2.42;;;;;;;12.69;98.49;99328.69;5285906;26;20012;-73
2024/04/12 04:37:05;;;;;;;9.70;3.00;;;;;;;12.49;96.14;99344.34;5342458;26;20013;-72
2024/04/12 04:39:32;;;;;;;4.50;2.25;;;;;;;12.63;100.00;99322.25;5321460;26;20025;-71
2024/04/12 04:41:59;;;;;;;6.45;2.55;;;;;;;12.53;100.00;99320.84;5380405;26;20000;-74
2024/04/12 04:44:25;;;;;;;8.73;2.22;;;;;;;12.33;100.00;99331.13;5379741;26;20535;-72
2024/04/12 04:46:52;;;;;;;7.50;2.63;;;;;;;12.22;100.00;99323.56;5351338;26;20398;-72
2024/04/12 04:49:19;;;;;;;4.57;2.03;;;;;;;12.29;100.00;99313.00;5351607;26;20000;-70
2024/04/12 04:51:46;;;;;;;5.43;2.65;;;;;;;12.36;100.00;99313.97;5380177;26;20007;-71
2024/04/12 04:54:13;;;;;;;4.72;2.00;;;;;;;12.26;100.00;99324.84;5351976;26;20070;-71
2024/04/12 04:56:40;;;;;;;9.55;2.42;;;;;;;12.18;100.00;99322.22;5350912;26;20015;-71
2024/04/12 04:59:16;;;;;;;7.35;2.40;;;;;;;12.31;100.00;99313.66;5350196;26;20003;-71
2024/04/12 05:01:42;;;;;;;4.85;2.05;;;;;;;12.21;100.00;99313.09;5379244;26;20008;-71
2024/04/12 05:04:15;;;;;;;7.07;2.70;;;;;;;12.14;100.00;99304.13;5379302;26;20054;-71
2024/04/12 05:06:44;;;;;;;5.88;2.40;;;;;;;12.44;100.00;99309.41;5379149;26;20070;-71
2024/04/12 05:09:11;;;;;;;6.35;2.70;;;;;;;12.62;100.00;99309.13;5378930;26;20023;-71
2024/04/12 05:11:38;;;;;;;6.85;2.20;;;;;;;12.45;100.00;99307.59;5379173;26;20036;-71
2024/04/12 05:14:14;;;;;;;7.22;2.22;;;;;;;12.57;100.00;99293.66;5379097;26;20000;-73
2024/04/12 05:16:42;;;;;;;8.90;2.28;;;;;;;12.76;100.00;99285.16;5408301;26;20004;-73
2024/04/12 05:19:12;;;;;;;5.43;2.30;;;;;;;12.68;100.00;99277.25;5379258;26;20008;-73
2024/04/12 05:21:41;;;;;;;2.90;1.85;;;;;;;12.84;100.00;99279.75;5322174;26;20011;-72
2024/04/12 05:24:10;;;;;;;6.68;2.33;;;;;;;12.89;100.00;99279.22;5379656;26;20433;-73
2024/04/12 05:26:41;;;;;;;6.22;2.30;;;;;;;13.04;100.00;99282.75;5380692;26;20004;-72
2024/04/12 05:29:12;;;;;;;8.30;2.75;;;;;;;12.67;100.00;99275.59;5378986;26;20004;-72
2024/04/12 05:31:44;;;;;;;5.88;2.40;;;;;;;12.85;100.00;99265.44;5349460;26;20423;-70
2024/04/12 05:34:18;;;;;;;5.35;2.40;;;;;;;12.87;100.00;99257.28;5292963;26;20001;-71
2024/04/12 05:36:47;;;;;;;3.97;2.28;;;;;;;12.67;100.00;99264.13;5295610;26;20012;-73
2024/04/12 05:39:14;;;;;;;6.93;2.33;;;;;;;12.63;100.00;99258.31;5362541;26;20005;-69
2024/04/12 05:41:44;;;;;;;5.20;2.50;;;;;;;12.73;100.00;99244.75;5364707;26;20015;-70
2024/04/12 05:44:11;;;;;;;3.15;1.98;;;;;;;12.59;100.00;99240.22;5333721;26;20012;-74
2024/04/12 05:46:39;;;;;;;7.93;2.45;;;;;;;12.65;100.00;99239.50;5362857;26;20014;-71
2024/04/12 05:49:09;;;;;;;4.22;2.30;;;;;;;13.00;100.00;99242.34;5378198;26;20074;-70
2024/04/12 05:51:41;;;;;;;8.18;2.08;;;;;;;13.51;100.00;99209.34;5386965;26;20027;-69
2024/04/12 05:54:15;;;;;;;9.95;2.50;;;;;;;13.81;100.00;99244.00;5349871;26;20041;-71
2024/04/12 05:56:46;;;;;;;8.20;2.40;;;;;;;14.37;100.00;99256.53;5383186;26;20139;-71
2024/04/12 05:59:16;;;;;;;8.02;2.20;;;;;;;14.74;100.00;99234.88;5333634;26;20039;-70
2024/04/12 06:01:46;;;;;;;6.90;2.47;;;;;;;14.47;100.00;99224.97;5381655;26;20004;-71
2024/04/12 06:04:19;;;;;;;4.97;2.38;;;;;;;14.57;100.00;99229.00;5406839;26;20008;-70
2024/04/12 06:06:47;;;;;;;5.28;2.08;;;;;;;14.93;100.00;99223.47;5349444;26;20004;-70
2024/04/12 06:09:23;;;;;;;7.28;2.40;;;;;;;14.91;100.00;99199.59;5346559;26;20020;-70
2024/04/12 06:11:56;;;;;;;4.65;2.00;;;;;;;14.99;100.00;99196.78;5310941;26;20009;-70
2024/04/12 06:14:24;;;;;;;4.75;1.90;;;;;;;15.30;99.63;99216.94;5370382;26;20428;-70
2024/04/12 06:16:55;;;;;;;7.00;2.10;;;;;;;15.72;97.94;99196.13;5341123;26;20013;-70
2024/04/12 06:19:24;;;;;;;8.52;2.10;;;;;;;15.66;97.75;99202.28;5346770;26;20004;-70
2024/04/12 06:21:50;;;;;;;5.95;2.30;;;;;;;16.16;92.28;99215.19;5375204;26;20019;-70
2024/04/12 06:24:26;;;;;;;7.45;2.47;;;;;;;16.53;88.84;99206.59;5406681;26;20012;-69
2024/04/12 06:26:54;;;;;;;5.07;2.30;;;;;;;16.84;85.41;99208.63;5407471;26;20430;-70
2024/04/12 06:29:22;;;;;;;5.22;2.10;;;;;;;17.05;81.83;99199.53;5349604;26;20007;-69
2024/04/12 06:31:56;;;;;;;7.22;2.00;;;;;;;17.37;81.74;99194.06;5377583;26;20016;-69
2024/04/12 06:34:22;;;;;;;2.78;1.50;;;;;;;17.55;77.97;99190.69;5379706;26;20046;-69
2024/04/12 06:37:05;;;;;;;6.80;2.25;;;;;;;17.67;77.35;99191.69;5382808;26;20000;-70
2024/04/12 06:39:31;;;;;;;6.85;2.13;;;;;;;17.36;75.52;99207.69;5352190;26;20012;-70
2024/04/12 06:42:04;;;;;;;6.43;2.30;;;;;;;17.21;78.22;99197.19;5381319;26;20015;-70
2024/04/12 06:44:31;;;;;;;6.30;2.35;;;;;;;17.24;78.36;99188.72;5380898;26;20028;-69
2024/04/12 06:46:58;;;;;;;6.43;2.28;;;;;;;17.20;78.25;99186.69;5323266;26;20074;-70
2024/04/12 06:49:27;;;;;;;5.97;2.13;;;;;;;17.53;77.96;99193.59;5410817;26;20000;-70
2024/04/12 06:52:09;;;;;;;3.63;2.10;;;;;;;17.65;76.13;99197.25;5352466;26;20050;-70
2024/04/12 06:54:36;;;;;;;3.85;1.90;;;;;;;17.97;74.63;99196.28;5351900;26;20070;-70
2024/04/12 06:57:06;;;;;;;5.63;1.85;;;;;;;18.20;73.81;99203.78;5380993;26;20075;-71
2024/04/12 06:59:35;;;;;;;6.95;2.40;;;;;;;17.66;72.95;99235.69;5380874;26;20000;-70
2024/04/12 07:02:06;;;;;;;6.32;2.28;;;;;;;17.67;74.72;99205.94;5380858;26;20004;-70
2024/04/12 07:04:38;;;;;;;12.85;2.78;;;;;;;17.45;76.63;99187.66;5382387;26;20485;-70
2024/04/12 07:07:04;;;;;;;8.90;2.37;;;;;;;17.57;77.85;99177.91;5383831;26;20496;-72
2024/04/12 07:09:34;;;;;;;3.70;2.03;;;;;;;17.72;76.66;99181.13;5322999;26;20000;-71
2024/04/12 07:12:05;;;;;;;10.80;2.17;;;;;;;17.73;76.94;99193.50;5380052;26;20442;-72
2024/04/12 07:14:36;;;;;;;4.20;2.38;;;;;;;18.29;74.30;99194.41;5380651;26;20011;-70
2024/04/12 07:17:19;;;;;;;4.90;1.77;;;;;;;18.41;70.19;99200.75;5380450;26;20012;-71
2024/04/12 07:19:50;;;;;;;6.90;1.70;;;;;;;18.40;70.87;99204.50;5356768;26;20265;-73
2024/04/12 07:22:20;;;;;;;4.17;2.13;;;;;;;18.05;72.43;99192.53;5382580;26;20407;-71
2024/04/12 07:24:53;;;;;;;5.20;2.28;;;;;;;17.63;76.12;99195.84;5381859;26;20260;-71
2024/04/12 07:27:27;;;;;;;10.10;2.40;;;;;;;17.34;78.66;99197.19;5353566;26;20078;-72
2024/04/12 07:29:54;;;;;;;7.18;2.45;;;;;;;16.80;85.43;99192.13;5355168;26;20011;-72
2024/04/12 07:32:22;;;;;;;4.50;1.83;;;;;;;16.84;86.10;99198.72;5352489;26;20032;-72
2024/04/12 07:34:49;;;;;;;3.70;1.80;;;;;;;17.28;85.06;99183.78;5351899;26;20025;-72
2024/04/12 07:37:30;;;;;;;5.47;2.10;;;;;;;17.62;82.97;99188.84;5351412;26;20438;-72
2024/04/12 07:40:18;;;;;;;4.55;1.60;;;;;;;17.91;80.28;99191.75;5350875;26;20050;-72
2024/04/12 07:42:50;;;;;;;6.95;1.95;;;;;;;17.51;82.78;99187.66;5380334;26;20012;-72
2024/04/12 07:45:23;;;;;;;;;;;;;;;17.44;84.92;99188.69;5351971;26;20386;-72
2024/04/12 07:47:52;;;;;;;3.47;1.80;;;;;;;17.43;84.45;99200.44;5379497;26;19991;-72
2024/04/12 07:50:30;;;;;;;2.20;1.30;;;;;;;17.69;83.82;99185.06;5351622;26;20531;-71
2024/04/12 07:53:10;;;;;;;3.15;1.40;;;;;;;17.94;82.49;99190.53;5380727;26;20315;-72
2024/04/12 07:55:39;;;;;;;4.40;1.60;;;;;;;17.93;80.68;99192.38;5380558;26;20012;-72
2024/04/12 07:58:08;;;;;;;7.05;1.70;;;;;;;17.81;81.78;99177.97;5381540;26;20040;-72
2024/04/12 08:00:48;;;;;;;3.63;1.90;;;;;;;17.92;82.42;99185.34;5322753;26;20070;-71
2024/04/12 08:03:17;;;;;;;3.60;1.67;;;;;;;17.93;83.33;99183.47;5346973;26;20340;-72
2024/04/12 08:06:00;;;;;;;5.85;1.60;;;;;;;17.96;83.61;99177.66;5336334;26;20074;-70
2024/04/12 08:08:29;;;;;;;3.45;1.50;;;;;;;18.00;83.35;99185.13;5364902;26;20479;-73
2024/04/12 08:11:31;;;;;;;4.40;1.75;;;;;;;17.99;83.74;99182.63;5349472;26;20012;-72
2024/04/12 08:14:08;;;;;;;3.60;1.60;;;;;;;17.95;87.03;99178.72;5355832;26;20013;-70
2024/04/12 08:16:36;;;;;;;5.13;1.60;;;;;;;17.94;86.05;99169.81;5329051;26;20013;-73
2024/04/12 08:19:13;;;;;;;3.38;1.45;;;;;;;17.99;86.68;99177.28;5335669;26;20107;-73
2024/04/12 08:21:41;;;;;;;2.95;1.30;;;;;;;17.94;85.96;99171.72;5366385;26;20008;-73
2024/04/12 08:24:22;;;;;;;3.97;1.27;;;;;;;17.85;87.72;99183.75;5368151;26;20015;-71
2024/04/12 08:26:51;;;;;;;4.50;1.38;;;;;;;17.89;89.38;99171.53;5368174;26;20008;-73
2024/04/12 08:29:28;;;;;;;2.17;1.40;;;;;;;17.81;88.96;99177.97;5361990;26;20044;-72
2024/04/12 08:32:11;;;;;;;6.68;1.67;;;;;;;17.28;93.30;99179.22;5355040;26;20008;-73
2024/04/12 08:34:42;;;;;;;9.60;1.80;;;;;;;17.00;96.70;99183.22;5346511;26;20454;-72
2024/04/12 08:37:16;;;;;;;2.55;1.48;;;;;;;16.96;100.00;99185.50;5355499;26;20048;-73
2024/04/12 08:39:52;;;;;;;5.85;1.33;;;;;;;16.99;99.20;99162.81;5337129;26;20009;-73
2024/04/12 08:42:19;;;;;;;4.57;1.67;;;;;;;17.09;99.13;99169.38;5365257;26;20013;-73
2024/04/12 08:44:48;;;;;;;1.65;1.10;;;;;;;17.16;99.55;99164.00;5378793;26;20431;-72
2024/04/12 08:47:36;;;;;;;5.80;1.13;;;;;;;17.08;100.00;99175.78;5369231;26;20012;-73
2024/04/12 08:50:06;;;;;;;2.10;1.05;;;;;;;17.14;100.00;99164.22;5353175;26;20051;-73
2024/04/12 08:52:43;;;;;;;6.07;1.10;;;;;;;17.17;100.00;99161.09;5345342;26;20009;-72
2024/04/12 08:55:13;;;;;;;3.50;1.52;;;;;;;17.05;100.00;99160.09;5358930;26;20346;-73
2024/04/12 08:57:44;;;;;;;4.13;1.80;;;;;;;16.87;100.00;99167.16;5365964;26;20004;-73
2024/04/12 09:00:21;;;;;;;4.30;1.60;;;;;;;16.62;100.00;99170.47;5362582;26;20054;-73
2024/04/12 09:03:02;;;;;;;3.38;1.60;;;;;;;16.75;100.00;99165.13;5358935;26;20043;-74
2024/04/12 09:05:30;;;;;;;2.15;1.30;;;;;;;16.74;100.00;99165.31;5336354;26;20027;-73
2024/04/12 09:07:58;;;;;;;4.05;1.17;;;;;;;16.64;100.00;99165.75;5315743;26;20001;-73
2024/04/12 09:10:25;;;;;;;3.20;1.23;;;;;;;16.69;100.00;99157.06;5349229;26;20028;-75
2024/04/12 09:12:52;;;;;;;3.50;1.30;;;;;;;16.58;100.00;99139.78;5378880;26;20327;-75
2024/04/12 09:15:24;;;;;;;9.85;1.50;;;;;;;16.24;100.00;99158.72;5378931;26;20001;-74
2024/04/12 09:18:18;;;;;;;3.40;1.88;;;;;;;16.44;100.00;99150.69;5351273;26;20001;-74
2024/04/12 09:20:45;;;;;;;4.75;1.65;;;;;;;16.46;100.00;99136.06;5330844;26;20015;-74
2024/04/12 09:23:15;;;;;;;8.35;2.10;;;;;;;16.54;100.00;99141.19;5378999;26;20004;-75
2024/04/12 09:25:45;;;;;;;2.42;1.48;;;;;;;16.69;100.00;99149.03;5378883;26;20371;-75
2024/04/12 09:28:16;;;;;;;5.65;1.38;;;;;;;16.46;100.00;99146.78;5379395;26;20012;-74
2024/04/12 09:33:31;;;;;;;2.85;1.25;;;;;;;16.70;100.00;99151.50;5381261;26;20000;-75
2024/04/12 09:36:14;;;;;;;1.65;1.08;;;;;;;16.82;100.00;99141.78;5286170;26;20001;-74
2024/04/12 09:38:41;;;;;;;4.68;1.00;;;;;;;16.74;100.00;99142.00;5287007;26;20060;-74
2024/04/12 09:41:28;;;;;;;3.53;1.45;;;;;;;16.77;100.00;99140.78;5302919;27;20002;-74
2024/04/12 09:43:59;;;;;;;5.10;1.45;;;;;;;16.99;100.00;99131.41;5318455;27;20053;-74
2024/04/12 09:46:36;;;;;;;;;;;;;;;17.20;100.00;99127.63;5286584;27;20283;-73
2024/04/12 10:38:46;;;;;;;2.40;1.40;;;;;;;17.08;100.00;99122.13;5345649;26;20005;-76
2024/04/12 10:41:15;;;;;;;2.38;1.27;;;;;;;17.17;100.00;99120.00;5336551;26;20012;-76
2024/04/12 10:43:45;;;;;;;2.75;1.38;;;;;;;17.24;100.00;99121.63;5322196;26;20548;-74
2024/04/12 10:46:11;;;;;;;3.22;1.42;;;;;;;17.44;100.00;99124.25;5322162;26;19996;-75
2024/04/12 10:48:39;;;;;;;3.78;1.50;;;;;;;17.61;100.00;99125.41;5323387;26;19996;-73
2024/04/12 10:51:08;;;;;;;3.13;1.48;;;;;;;17.59;99.37;99096.06;5322017;26;20007;-75
2024/04/12 10:53:38;;;;;;;1.80;1.35;;;;;;;17.68;99.69;99121.63;5323364;26;20000;-75
2024/04/12 10:56:11;;;;;;;4.57;1.70;;;;;;;17.74;99.54;99111.91;5336465;26;19996;-74
2024/04/12 10:58:48;;;;;;;2.08;1.23;;;;;;;17.78;99.98;99111.25;5411045;26;20036;-70
2024/04/12 11:01:16;;;;;;;1.63;1.15;;;;;;;17.60;99.65;99103.13;5382979;26;20001;-74
2024/04/12 11:03:56;;;;;;;2.35;1.52;;;;;;;17.64;100.00;99106.16;5353344;26;20007;-75
2024/04/12 11:06:31;;;;;;;4.63;1.60;;;;;;;17.76;100.00;99109.84;5383785;26;20051;-74
2024/04/12 11:09:05;;;;;;;1.60;1.08;;;;;;;17.91;99.36;99099.59;5352486;26;20055;-74
2024/04/12 11:11:38;;;;;;;6.00;1.63;;;;;;;17.65;100.00;99094.41;5381321;26;20015;-75
2024/04/12 11:14:15;;;;;;;5.10;1.60;;;;;;;17.69;100.00;99098.28;5317404;26;20001;-75
2024/04/12 11:31:14;;;;;;;1.98;1.33;;;;;;;17.34;100.00;99095.16;5294179;26;20050;-73
2024/04/12 11:33:46;;;;;;;3.78;1.50;;;;;;;17.52;100.00;99089.94;5297111;26;20008;-73
2024/04/12 11:36:14;;;;;;;3.00;1.23;;;;;;;17.47;100.00;99091.59;5315910;26;20465;-74
2024/04/12 11:38:44;;;;;;;2.50;1.40;;;;;;;17.43;100.00;99085.81;5260734;26;20013;-73
2024/04/12 11:41:15;;;;;;;6.18;1.48;;;;;;;17.12;100.00;99096.50;5342938;26;20016;-73
2024/04/12 11:43:45;;;;;;;3.33;1.30;;;;;;;17.25;100.00;99082.22;5344296;26;20001;-72
2024/04/12 11:46:14;;;;;;;1.67;1.00;;;;;;;17.33;100.00;99085.44;5342969;26;20004;-74
2024/04/12 11:48:42;;;;;;;3.10;1.20;;;;;;;17.49;100.00;99073.44;5342716;26;20009;-73
2024/04/12 11:51:09;;;;;;;2.83;1.60;;;;;;;17.59;100.00;99077.28;5359578;26;20040;-73
2024/04/12 11:53:37;;;;;;;2.25;1.33;;;;;;;17.78;100.00;99068.28;5273876;26;20010;-74
2024/04/12 11:56:05;;;;;;;4.03;1.83;;;;;;;17.62;100.00;99068.00;5267815;26;20005;-77
2024/04/12 11:58:33;;;;;;;6.90;2.30;;;;;;;17.66;100.00;99074.56;5310498;26;20001;-74
2024/04/12 12:01:04;;;;;;;3.00;2.15;;;;;;;17.76;100.00;99069.53;5287786;26;20001;-73
2024/04/12 12:03:31;;;;;;;4.50;2.10;;;;;;;17.81;100.00;99072.38;5266523;27;20002;-74
2024/04/12 12:06:06;;;;;;;5.75;1.70;;;;;;;17.91;100.00;99068.16;5169790;27;20018;-74
2024/04/12 12:08:42;;;;;;;3.42;1.90;;;;;;;18.10;100.00;99077.94;5195955;27;20150;-74
2024/04/12 12:11:10;;;;;;;6.90;1.27;;;;;;;17.96;100.00;99054.91;5194727;27;20019;-73
2024/04/12 12:13:36;;;;;;;3.15;1.77;;;;;;;17.69;100.00;99082.19;5225414;27;20011;-73
2024/04/12 12:16:03;;;;;;;4.75;1.60;;;;;;;17.53;100.00;99062.03;5226669;27;20023;-74
2024/04/12 12:18:29;;;;;;;2.05;1.10;;;;;;;17.51;100.00;99066.00;5195166;27;20019;-74
2024/04/12 12:20:56;;;;;;;1.90;1.30;;;;;;;17.59;100.00;99065.75;5164278;27;20019;-71
2024/04/12 12:23:24;;;;;;;1.90;0.95;;;;;;;17.75;100.00;99049.91;5164990;27;20005;-74
2024/04/12 12:25:51;;;;;;;4.63;1.70;;;;;;;17.77;100.00;99047.84;5213009;27;20595;-74
2024/04/12 12:28:17;;;;;;;2.85;1.52;;;;;;;17.63;100.00;99040.91;5185677;27;20003;-73
2024/04/12 12:30:53;;;;;;;3.42;1.45;;;;;;;17.50;100.00;99022.19;5185401;27;20006;-73
2024/04/12 12:33:20;;;;;;;9.82;1.88;;;;;;;17.38;100.00;99039.16;5188279;27;20565;-73
2024/04/12 12:35:46;;;;;;;2.70;1.23;;;;;;;17.17;100.00;99036.81;5274318;27;20010;-73
2024/04/12 12:38:13;;;;;;;4.88;1.75;;;;;;;17.14;100.00;99029.19;5348927;26;20008;-73
2024/04/12 12:40:39;;;;;;;6.13;1.73;;;;;;;16.94;100.00;99023.94;5348973;26;20124;-73
2024/04/12 12:43:05;;;;;;;2.30;1.35;;;;;;;16.91;100.00;99028.91;5292614;26;20068;-74
2024/04/12 12:45:33;;;;;;;4.63;1.50;;;;;;;16.92;100.00;99031.38;5348552;26;20411;-74
2024/04/12 12:47:59;;;;;;;3.95;2.00;;;;;;;16.84;100.00;99018.19;5352258;26;20004;-73
2024/04/12 12:50:25;;;;;;;3.05;1.70;;;;;;;16.69;100.00;99028.38;5323872;26;20001;-74
2024/04/12 12:52:51;;;;;;;2.55;1.40;;;;;;;16.74;100.00;99024.00;5280970;26;20097;-73
2024/04/12 12:55:20;;;;;;;6.10;1.90;;;;;;;16.76;100.00;99023.78;5307406;26;20072;-74
2024/04/12 12:57:49;;;;;;;3.67;1.92;;;;;;;16.75;100.00;99020.31;5372375;26;20005;-73
2024/04/12 13:00:19;;;;;;;2.83;1.48;;;;;;;16.81;100.00;99013.25;5315040;26;20065;-73